sensor_id;sensor_type;location;lat;lon;timestamp;P1;durP1;ratioP1;P2;durP2;ratioP2
80963;SDS011;70425;59.322;13.486;2023-12-20T02:19:50;20.53;;;2.17;;
80963;SDS011;70425;59.322;13.486;2023-12-20T02:33:27;8.20;;;1.03;;
80963;SDS011;70425;59.322;13.486;2023-12-20T04:07:08;11.13;;;1.30;;
80963;SDS011;70425;59.322;13.486;2023-12-20T04:14:02;20.47;;;2.00;;
80963;SDS011;70425;59.322;13.486;2023-12-20T04:24:21;16.30;;;1.80;;
80963;SDS011;70425;59.322;13.486;2023-12-20T04:27:33;13.57;;;1.63;;
80963;SDS011;70425;59.322;13.486;2023-12-20T04:34:31;22.47;;;1.97;;
80963;SDS011;70425;59.322;13.486;2023-12-20T04:41:16;13.60;;;2.03;;
80963;SDS011;70425;59.322;13.486;2023-12-20T04:44:20;17.37;;;1.80;;
80963;SDS011;70425;59.322;13.486;2023-12-20T04:47:44;22.23;;;2.20;;
80963;SDS011;70425;59.322;13.486;2023-12-20T04:50:43;16.17;;;2.03;;
80963;SDS011;70425;59.322;13.486;2023-12-20T04:54:03;28.20;;;2.00;;
80963;SDS011;70425;59.322;13.486;2023-12-20T04:57:14;14.73;;;1.87;;
80963;SDS011;70425;59.322;13.486;2023-12-20T05:17:01;27.87;;;2.70;;
80963;SDS011;70425;59.322;13.486;2023-12-20T05:20:17;19.60;;;2.30;;
80963;SDS011;70425;59.322;13.486;2023-12-20T05:23:11;23.73;;;2.33;;
80963;SDS011;70425;59.322;13.486;2023-12-20T05:26:17;21.83;;;2.07;;
80963;SDS011;70425;59.322;13.486;2023-12-20T05:29:09;14.90;;;2.30;;
80963;SDS011;70425;59.322;13.486;2023-12-20T16:24:15;0.83;;;0.77;;
80963;SDS011;70425;59.322;13.486;2023-12-20T16:27:53;1.93;;;0.90;;
80963;SDS011;70425;59.322;13.486;2023-12-20T16:35:17;0.80;;;0.80;;
80963;SDS011;70425;59.322;13.486;2023-12-20T17:45:11;2.43;;;1.10;;
80963;SDS011;70425;59.322;13.486;2023-12-20T17:48:48;1.10;;;1.00;;
80963;SDS011;70425;59.322;13.486;2023-12-20T18:34:11;2.27;;;0.73;;
80963;SDS011;70425;59.322;13.486;2023-12-20T18:37:04;0.93;;;0.80;;
80963;SDS011;70425;59.322;13.486;2023-12-20T18:40:16;1.13;;;1.03;;
80963;SDS011;70425;59.322;13.486;2023-12-20T18:43:13;0.83;;;0.83;;
80963;SDS011;70425;59.322;13.486;2023-12-20T18:46:49;0.80;;;0.80;;
80963;SDS011;70425;59.322;13.486;2023-12-20T18:49:49;1.43;;;1.00;;
80963;SDS011;70425;59.322;13.486;2023-12-20T18:52:46;1.47;;;0.70;;
80963;SDS011;70425;59.322;13.486;2023-12-20T18:55:36;0.70;;;0.70;;
80963;SDS011;70425;59.322;13.486;2023-12-20T18:58:36;3.77;;;1.30;;
80963;SDS011;70425;59.322;13.486;2023-12-20T19:01:32;4.07;;;2.27;;
80963;SDS011;70425;59.322;13.486;2023-12-20T19:04:27;2.07;;;1.73;;
80963;SDS011;70425;59.322;13.486;2023-12-20T19:07:27;2.67;;;1.60;;
80963;SDS011;70425;59.322;13.486;2023-12-20T19:10:26;1.67;;;1.57;;
80963;SDS011;70425;59.322;13.486;2023-12-20T19:16:07;3.93;;;1.53;;
80963;SDS011;70425;59.322;13.486;2023-12-20T19:19:00;2.30;;;1.30;;
80963;SDS011;70425;59.322;13.486;2023-12-20T19:21:55;3.03;;;1.50;;
80963;SDS011;70425;59.322;13.486;2023-12-20T19:27:40;1.40;;;1.10;;
80963;SDS011;70425;59.322;13.486;2023-12-20T19:30:36;2.90;;;1.93;;
80963;SDS011;70425;59.322;13.486;2023-12-20T19:33:39;2.47;;;1.80;;
80963;SDS011;70425;59.322;13.486;2023-12-20T19:36:41;5.33;;;1.93;;
80963;SDS011;70425;59.322;13.486;2023-12-20T19:42:50;1.13;;;1.00;;
80963;SDS011;70425;59.322;13.486;2023-12-20T19:45:44;3.30;;;0.83;;
80963;SDS011;70425;59.322;13.486;2023-12-20T19:52:41;35.03;;;8.90;;
80963;SDS011;70425;59.322;13.486;2023-12-20T19:55:36;0.80;;;0.80;;
80963;SDS011;70425;59.322;13.486;2023-12-20T19:58:28;0.80;;;0.60;;
80963;SDS011;70425;59.322;13.486;2023-12-20T20:01:17;2.67;;;1.03;;
80963;SDS011;70425;59.322;13.486;2023-12-20T20:04:11;0.97;;;0.60;;
80963;SDS011;70425;59.322;13.486;2023-12-20T20:07:00;1.17;;;1.00;;
80963;SDS011;70425;59.322;13.486;2023-12-20T20:09:51;0.53;;;0.50;;
80963;SDS011;70425;59.322;13.486;2023-12-20T20:12:41;0.50;;;0.50;;
80963;SDS011;70425;59.322;13.486;2023-12-20T20:15:32;1.50;;;0.73;;
80963;SDS011;70425;59.322;13.486;2023-12-20T20:18:22;0.83;;;0.60;;
80963;SDS011;70425;59.322;13.486;2023-12-20T20:21:11;0.90;;;0.60;;
80963;SDS011;70425;59.322;13.486;2023-12-20T20:24:01;0.80;;;0.80;;
80963;SDS011;70425;59.322;13.486;2023-12-20T20:26:52;3.60;;;1.10;;
80963;SDS011;70425;59.322;13.486;2023-12-20T20:29:42;3.67;;;0.67;;
80963;SDS011;70425;59.322;13.486;2023-12-20T20:32:25;2.60;;;1.27;;
80963;SDS011;70425;59.322;13.486;2023-12-20T20:35:15;3.30;;;1.03;;
80963;SDS011;70425;59.322;13.486;2023-12-20T20:38:15;1.47;;;1.00;;
80963;SDS011;70425;59.322;13.486;2023-12-20T20:41:06;1.10;;;0.83;;
80963;SDS011;70425;59.322;13.486;2023-12-20T20:43:56;2.50;;;0.80;;
80963;SDS011;70425;59.322;13.486;2023-12-20T20:46:48;0.90;;;0.67;;
80963;SDS011;70425;59.322;13.486;2023-12-20T20:49:38;2.90;;;0.77;;
80963;SDS011;70425;59.322;13.486;2023-12-20T20:56:56;4.43;;;1.17;;
80963;SDS011;70425;59.322;13.486;2023-12-20T20:59:50;1.80;;;0.90;;
80963;SDS011;70425;59.322;13.486;2023-12-20T21:02:41;1.13;;;0.87;;
80963;SDS011;70425;59.322;13.486;2023-12-20T21:05:31;4.13;;;1.30;;
80963;SDS011;70425;59.322;13.486;2023-12-20T21:08:26;1.57;;;0.93;;
80963;SDS011;70425;59.322;13.486;2023-12-20T21:11:22;2.47;;;0.80;;
80963;SDS011;70425;59.322;13.486;2023-12-20T21:17:09;0.50;;;0.50;;
80963;SDS011;70425;59.322;13.486;2023-12-20T21:20:22;3.77;;;1.10;;
80963;SDS011;70425;59.322;13.486;2023-12-20T21:23:16;1.10;;;1.00;;
80963;SDS011;70425;59.322;13.486;2023-12-20T21:26:14;4.07;;;1.10;;
80963;SDS011;70425;59.322;13.486;2023-12-20T21:32:35;1.80;;;1.00;;
80963;SDS011;70425;59.322;13.486;2023-12-20T21:35:48;2.20;;;0.80;;
80963;SDS011;70425;59.322;13.486;2023-12-20T21:38:49;1.63;;;0.97;;
80963;SDS011;70425;59.322;13.486;2023-12-20T21:41:38;3.93;;;1.20;;
80963;SDS011;70425;59.322;13.486;2023-12-20T21:44:44;1.30;;;1.00;;
80963;SDS011;70425;59.322;13.486;2023-12-20T21:47:39;1.27;;;0.93;;
80963;SDS011;70425;59.322;13.486;2023-12-20T21:50:34;6.70;;;1.33;;
80963;SDS011;70425;59.322;13.486;2023-12-20T21:56:06;4.83;;;1.17;;
80963;SDS011;70425;59.322;13.486;2023-12-20T21:58:58;3.67;;;0.93;;
80963;SDS011;70425;59.322;13.486;2023-12-20T22:05:45;4.40;;;1.10;;
80963;SDS011;70425;59.322;13.486;2023-12-20T22:08:35;3.30;;;1.10;;
80963;SDS011;70425;59.322;13.486;2023-12-20T22:11:25;1.50;;;1.00;;
80963;SDS011;70425;59.322;13.486;2023-12-20T22:14:16;5.27;;;1.10;;
80963;SDS011;70425;59.322;13.486;2023-12-20T22:17:06;2.03;;;1.00;;
80963;SDS011;70425;59.322;13.486;2023-12-20T22:19:58;0.80;;;0.80;;
80963;SDS011;70425;59.322;13.486;2023-12-20T22:22:48;1.07;;;0.73;;
80963;SDS011;70425;59.322;13.486;2023-12-20T22:25:38;2.57;;;0.90;;
80963;SDS011;70425;59.322;13.486;2023-12-20T22:32:44;1.97;;;1.20;;
80963;SDS011;70425;59.322;13.486;2023-12-20T22:42:31;1.90;;;1.10;;
80963;SDS011;70425;59.322;13.486;2023-12-20T22:45:25;4.80;;;1.07;;
80963;SDS011;70425;59.322;13.486;2023-12-20T22:48:17;2.10;;;1.23;;
80963;SDS011;70425;59.322;13.486;2023-12-20T22:51:08;3.43;;;0.97;;
80963;SDS011;70425;59.322;13.486;2023-12-20T22:53:58;2.70;;;1.20;;
80963;SDS011;70425;59.322;13.486;2023-12-20T22:56:50;1.23;;;1.00;;
80963;SDS011;70425;59.322;13.486;2023-12-20T22:59:41;4.13;;;1.20;;
80963;SDS011;70425;59.322;13.486;2023-12-20T23:02:32;2.10;;;0.90;;
80963;SDS011;70425;59.322;13.486;2023-12-20T23:05:23;8.60;;;1.40;;
80963;SDS011;70425;59.322;13.486;2023-12-20T23:08:13;3.20;;;0.97;;
80963;SDS011;70425;59.322;13.486;2023-12-20T23:11:03;4.33;;;1.20;;
80963;SDS011;70425;59.322;13.486;2023-12-20T23:16:49;2.30;;;1.03;;
80963;SDS011;70425;59.322;13.486;2023-12-20T23:19:38;4.07;;;1.10;;
80963;SDS011;70425;59.322;13.486;2023-12-20T23:22:36;1.50;;;1.23;;
80963;SDS011;70425;59.322;13.486;2023-12-20T23:25:25;3.77;;;1.17;;
80963;SDS011;70425;59.322;13.486;2023-12-20T23:47:09;2.37;;;1.37;;
80963;SDS011;70425;59.322;13.486;2023-12-20T23:49:59;2.07;;;1.10;;
80963;SDS011;70425;59.322;13.486;2023-12-20T23:52:47;3.60;;;1.13;;
80963;SDS011;70425;59.322;13.486;2023-12-20T23:55:37;3.37;;;1.40;;
